Eships Agamid — ZDHS9 — position and weather

sailwx.info

Track history (hours):
 
Tides and Currents Weather Stations Pressure Air Temp Water Temp Dewpoint Dewpoint Depression Visibility Wind Speed Wind Dir Waves Ship Positions

Eships Agamid

Last reported at 2017-Dec-15 02:06 UTC. Time now 2017-Dec-17 17:44 UTC.
Position S 06°42' E 011°26'.

Length 128 m; draft 6.9 m.

Type: Tanker. MMSI: 236355000.

Date/timePositionNaut miles runAvg speedWind from/ knotsBaromVisibWave heightAir tempDewpointWater temp
2017-Dec-15 02:06S 06°42' E 011°26'63 2.5
2017-Dec-14 00:39S 05°45' E 011°02'910.9
2017-Dec-13 23:52S 05°37' E 010°57'21 1.1
2017-Dec-13 04:51S 05°17' E 011°01'412.6
2017-Dec-13 04:30S 05°20' E 011°03'612.4
2017-Dec-13 04:00S 05°26' E 011°06'612.6
2017-Dec-13 03:30S 05°31' E 011°09'612.5
2017-Dec-13 03:00S 05°37' E 011°13'612.5
2017-Dec-13 02:29S 05°42' E 011°16'15 0.3
2017-Dec-11 05:43S 05°45' E 011°02'412.1
2017-Dec-11 05:24S 05°43' E 010°59'612.5
2017-Dec-11 04:57S 05°38' E 010°55'  
Track history (hours):
 
Tides and Currents Weather Stations Pressure Air Temp Water Temp Dewpoint Dewpoint Depression Visibility Wind Speed Wind Dir Waves Ship Positions

Eships Agamid

Last reported at 2017-Dec-15 02:06 UTC. Time now 2017-Dec-17 17:44 UTC.
Position S 06°42' E 011°26'.

Length 128 m; draft 6.9 m.

Type: Tanker. MMSI: 236355000.

Date/timePositionNaut miles runAvg speedWind from/ knotsBaromVisibWave heightAir tempDewpointWater temp
2017-Dec-15 02:06S 06°42' E 011°26'63 2.5
2017-Dec-14 00:39S 05°45' E 011°02'910.9
2017-Dec-13 23:52S 05°37' E 010°57'21 1.1
2017-Dec-13 04:51S 05°17' E 011°01'412.6
2017-Dec-13 04:30S 05°20' E 011°03'612.4
2017-Dec-13 04:00S 05°26' E 011°06'612.6
2017-Dec-13 03:30S 05°31' E 011°09'612.5
2017-Dec-13 03:00S 05°37' E 011°13'612.5
2017-Dec-13 02:29S 05°42' E 011°16'15 0.3
2017-Dec-11 05:43S 05°45' E 011°02'412.1
2017-Dec-11 05:24S 05°43' E 010°59'612.5
2017-Dec-11 04:57S 05°38' E 010°55'  

Dump ship's entire track history